Time;durP1;ratioP1;P1;durP2;ratioP2;P2;SDS_P1;SDS_P2;PMS_P1;PMS_P2;Temp;Humidity;BMP_temperature;BMP_pressure;BME280_temperature;BME280_humidity;BME280_pressure;Samples;Min_cycle;Max_cycle;Signal;HPM_P1;HPM_P2
2023/03/02 00:00:24;;;;;;;;;;;;;;;0.69;62.93;102406.41;5058192;28;19932;-61
2023/03/02 00:02:50;;;;;;;;;;;;;;;0.65;62.98;102403.09;5057910;28;19940;-61
2023/03/02 00:05:15;;;;;;;;;;;;;;;0.62;63.08;102398.00;5058532;28;19920;-61
2023/03/02 00:07:40;;;;;;;;;;;;;;;0.60;63.02;102397.22;5060007;28;20309;-61
2023/03/02 00:10:06;;;;;;;;;;;;;;;0.59;63.05;102406.00;5067341;28;20293;-61
2023/03/02 00:12:32;;;;;;;;;;;;;;;0.56;63.23;102400.88;5068943;28;19916;-61
2023/03/02 00:14:57;;;;;;;;;;;;;;;0.58;63.47;102399.06;5061722;28;19925;-61
2023/03/02 00:17:26;;;;;;;;;;;;;;;0.59;63.58;102400.75;5058653;28;19923;-61
2023/03/02 00:19:52;;;;;;;;;;;;;;;0.59;63.82;102403.38;5063834;28;19912;-61
2023/03/02 00:22:18;;;;;;;;;;;;;;;0.58;63.90;102397.31;5065078;28;19920;-61
2023/03/02 00:24:43;;;;;;;;;;;;;;;0.56;64.05;102393.03;5060107;28;19924;-61
2023/03/02 00:27:08;;;;;;;;;;;;;;;0.53;64.13;102390.56;5054516;28;20386;-61
2023/03/02 00:29:33;;;;;;;;;;;;;;;0.50;64.50;102388.09;5065975;28;19916;-61
2023/03/02 00:31:58;;;;;;;;;;;;;;;0.49;64.46;102396.84;5063610;28;20484;-61
2023/03/02 00:34:23;;;;;;;;;;;;;;;0.48;64.91;102390.75;5057377;28;19916;-61
2023/03/02 00:36:49;;;;;;;;;;;;;;;0.48;65.05;102400.38;5054788;28;20623;-61
2023/03/02 00:39:14;;;;;;;;;;;;;;;0.47;65.20;102399.53;5048132;28;19917;-61
2023/03/02 00:41:39;;;;;;;;;;;;;;;0.48;65.50;102393.38;5061096;28;19920;-61
2023/03/02 00:44:04;;;;;;;;;;;;;;;0.48;65.45;102393.38;5054146;28;19978;-61
2023/03/02 00:46:29;;;;;;;;;;;;;;;0.51;65.63;102387.16;5055037;28;19932;-61
2023/03/02 00:48:55;;;;;;;;;;;;;;;0.52;65.71;102389.72;5062292;28;20003;-61
2023/03/02 00:51:20;;;;;;;;;;;;;;;0.54;65.66;102392.25;5053470;28;19928;-61
2023/03/02 00:53:45;;;;;;;;;;;;;;;0.55;65.82;102386.09;5056392;28;19917;-61
2023/03/02 00:56:10;;;;;;;;;;;;;;;0.53;65.96;102386.19;5050010;28;19921;-61
2023/03/02 00:58:36;;;;;;;;;;;;;;;0.53;65.97;102386.19;5060103;28;19916;-61
2023/03/02 01:01:05;;;;;;;;;;;;;;;0.54;66.04;102384.41;5051777;28;19923;-61
2023/03/02 01:03:31;;;;;;;;;;;;;;;0.54;66.05;102393.09;5066554;28;19999;-61
2023/03/02 01:05:56;;;;;;;;;;;;;;;0.56;66.11;102387.81;5049274;28;20007;-61
2023/03/02 01:08:22;;;;;;;;;;;;;;;0.56;66.19;102390.41;5061676;28;19912;-61
2023/03/02 01:10:48;;;;;;;;;;;;;;;0.58;66.34;102388.63;5053108;28;20396;-61
2023/03/02 01:13:13;;;;;;;;;;;;;;;0.59;66.23;102385.09;5049711;28;19962;-60
2023/03/02 01:15:38;;;;;;;;;;;;;;;0.60;66.32;102381.56;5059134;28;19920;-61
2023/03/02 01:18:03;;;;;;;;;;;;;;;0.59;66.34;102391.16;5065043;28;20333;-61
2023/03/02 01:20:29;;;;;;;;;;;;;;;0.56;66.48;102385.19;5058238;28;20001;-61
2023/03/02 01:22:54;;;;;;;;;;;;;;;0.53;66.61;102388.78;5060141;28;19991;-61
2023/03/02 01:25:19;;;;;;;;;;;;;;;0.50;66.69;102385.47;5057514;28;20024;-61
2023/03/02 01:27:44;;;;;;;;;;;;;;;0.48;66.85;102377.69;5063578;28;20519;-61
2023/03/02 01:30:10;;;;;;;;;;;;;;;0.46;67.09;102381.28;5066279;28;19924;-61
2023/03/02 01:32:35;;;;;;;;;;;;;;;0.41;67.32;102378.88;5060953;28;19964;-61
2023/03/02 01:35:00;;;;;;;;;;;;;;;0.36;67.46;102377.41;5060029;28;20020;-61
2023/03/02 01:37:25;;;;;;;;;;;;;;;0.32;67.84;102379.31;5059003;28;20401;-61
2023/03/02 01:39:51;;;;;;;;;;;;;;;0.32;67.98;102379.31;5049484;28;20344;-61
2023/03/02 01:42:16;;;;;;;;;;;;;;;0.32;67.99;102371.47;5049998;28;19917;-61
2023/03/02 01:44:46;;;;;;;;;;;;;;;0.31;68.14;102375.00;5053790;28;19924;-61
2023/03/02 01:47:14;;;;;;;;;;;;;;;0.29;68.41;102376.81;5053561;28;19932;-61
2023/03/02 01:49:48;;;;;;;;;;;;;;;0.27;68.90;102370.78;5054678;28;19931;-61
2023/03/02 01:52:14;;;;;;;;;;;;;;;0.24;69.06;102360.47;5055206;28;19995;-61
2023/03/02 01:54:40;;;;;;;;;;;;;;;0.23;69.37;102367.47;5064172;28;20012;-61
2023/03/02 01:57:06;;;;;;;;;;;;;;;0.22;69.49;102368.38;5057822;28;19921;-61
2023/03/02 01:59:32;;;;;;;;;;;;;;;0.20;69.81;102359.75;5063195;28;20398;-61
2023/03/02 02:01:59;;;;;;;;;;;;;;;0.19;70.05;102355.47;5055210;28;19928;-61
2023/03/02 02:04:25;;;;;;;;;;;;;;;0.18;70.13;102358.97;5057943;28;19923;-61
2023/03/02 02:06:55;;;;;;;;;;;;;;;0.17;69.98;102365.13;5054167;28;19921;-61
2023/03/02 02:09:22;;;;;;;;;;;;;;;0.19;70.19;102368.53;5059853;28;20344;-61
2023/03/02 02:11:48;;;;;;;;;;;;;;;0.20;70.36;102366.75;5061898;28;19995;-61
2023/03/02 02:14:13;;;;;;;;;;;;;;;0.20;70.75;102370.22;5053211;28;20420;-61
2023/03/02 02:16:39;;;;;;;;;;;;;;;0.21;71.05;102355.38;5058871;28;19931;-61
2023/03/02 02:19:11;;;;;;;;;;;;;;;0.19;71.62;102352.84;5053422;28;20412;-61
2023/03/02 02:21:36;;;;;;;;;;;;;;;0.19;72.10;102354.59;5057109;28;19928;-61
2023/03/02 02:24:08;;;;;;;;;;;;;;;0.18;72.40;102353.75;5045301;28;19916;-60
2023/03/02 02:26:39;;;;;;;;;;;;;;;0.18;73.08;102358.13;5062441;28;19932;-61
2023/03/02 02:29:11;;;;;;;;;;;;;;;0.18;73.35;102358.13;5055654;28;19926;-61
2023/03/02 02:31:39;;;;;;;;;;;;;;;0.17;73.18;102346.00;5055296;28;19917;-61
2023/03/02 02:34:09;;;;;;;;;;;;;;;0.16;73.34;102344.28;5058531;28;19927;-61
2023/03/02 02:36:40;;;;;;;;;;;;;;;0.14;73.47;102352.19;5062430;28;19927;-61
2023/03/02 02:39:09;;;;;;;;;;;;;;;0.12;73.73;102340.13;5057208;28;19931;-61
2023/03/02 02:41:37;;;;;;;;;;;;;;;0.09;74.08;102337.66;5053165;28;19920;-61
2023/03/02 02:44:03;;;;;;;;;;;;;;;0.08;74.40;102346.41;5057945;28;20615;-60
2023/03/02 02:46:28;;;;;;;;;;;;;;;0.08;74.87;102336.81;5061294;28;19924;-61
2023/03/02 02:48:53;;;;;;;;;;;;;;;0.09;75.20;102333.28;5057183;28;20311;-61
2023/03/02 02:51:22;;;;;;;;;;;;;;;0.08;75.52;102341.19;5050600;28;19924;-60
2023/03/02 02:53:57;;;;;;;;;;;;;;;0.06;75.80;102330.81;5056515;28;20377;-61
2023/03/02 02:56:23;;;;;;;;;;;;;;;0.05;76.13;102331.72;5063736;28;19927;-61
2023/03/02 02:58:51;;;;;;;;;;;;;;;0.04;76.51;102335.25;5050373;28;19924;-61
2023/03/02 03:01:19;;;;;;;;;;;;;;;0.04;76.90;102330.03;5052527;28;19955;-61
2023/03/02 03:03:52;;;;;;;;;;;;;;;0.04;77.22;102323.94;5055509;28;19924;-60
2023/03/02 03:06:22;;;;;;;;;;;;;;;0.03;77.48;102317.03;5052753;28;20385;-60
2023/03/02 03:08:49;;;;;;;;;;;;;;;0.02;77.66;102324.00;5060029;28;19924;-61
2023/03/02 03:11:22;;;;;;;;;;;;;;;0.01;78.14;102329.31;5058639;28;20011;-61
2023/03/02 03:13:51;;;;;;;;;;;;;;;0.00;78.33;102328.47;5064368;28;20003;-61
2023/03/02 03:16:17;;;;;;;;;;;;;;;-0.01;78.58;102324.13;5055301;28;19921;-61
2023/03/02 03:18:43;;;;;;;;;;;;;;;0.00;78.89;102331.06;5058773;28;20386;-61
2023/03/02 03:21:08;;;;;;;;;;;;;;;-0.01;79.16;102327.56;5065655;28;19921;-60
2023/03/02 03:23:37;;;;;;;;;;;;;;;-0.01;79.37;102326.72;5067552;28;20023;-61
2023/03/02 03:26:02;;;;;;;;;;;;;;;-0.01;79.64;102326.72;5058936;28;19963;-61
2023/03/02 03:28:27;;;;;;;;;;;;;;;-0.02;79.64;102325.03;5063975;28;19944;-61
2023/03/02 03:30:52;;;;;;;;;;;;;;;-0.03;79.92;102321.56;5060190;28;19956;-61
2023/03/02 03:33:17;;;;;;;;;;;;;;;-0.03;80.13;102323.34;5063325;28;19966;-61
2023/03/02 03:35:43;;;;;;;;;;;;;;;-0.04;80.25;102325.09;5061432;28;19956;-61
2023/03/02 03:38:08;;;;;;;;;;;;;;;-0.05;80.42;102319.94;5063376;28;19974;-60
2023/03/02 03:40:33;;;;;;;;;;;;;;;-0.06;80.65;102318.25;5068715;28;20375;-61
2023/03/02 03:43:01;;;;;;;;;;;;;;;-0.04;81.02;102326.88;5054480;28;19920;-61
2023/03/02 03:45:26;;;;;;;;;;;;;;;-0.06;80.90;102326.09;5056345;28;19958;-61
2023/03/02 03:47:52;;;;;;;;;;;;;;;-0.03;80.91;102328.56;5061477;28;19916;-61
2023/03/02 03:50:17;;;;;;;;;;;;;;;-0.05;81.23;102322.56;5050708;28;20011;-61
2023/03/02 03:52:42;;;;;;;;;;;;;;;-0.06;81.48;102328.69;5052407;28;19932;-61
2023/03/02 03:55:08;;;;;;;;;;;;;;;-0.05;81.54;102326.03;5050735;28;20008;-60
2023/03/02 03:57:33;;;;;;;;;;;;;;;-0.07;81.76;102327.84;5051784;28;19999;-61
2023/03/02 03:59:58;;;;;;;;;;;;;;;-0.07;81.83;102324.38;5049795;28;19924;-61
2023/03/02 04:02:23;;;;;;;;;;;;;;;-0.09;81.90;102321.00;5057114;28;20321;-61
2023/03/02 04:04:48;;;;;;;;;;;;;;;-0.09;81.91;102318.38;5050131;28;20039;-60
2023/03/02 04:07:14;;;;;;;;;;;;;;;-0.09;81.93;102321.00;5058420;28;20003;-60
2023/03/02 04:09:39;;;;;;;;;;;;;;;-0.11;82.25;102320.22;5054969;28;19925;-59
2023/03/02 04:12:05;;;;;;;;;;;;;;;-0.13;82.37;102317.66;5056658;28;19917;-60
2023/03/02 04:14:30;;;;;;;;;;;;;;;-0.14;82.41;102318.59;5058434;28;19970;-60
2023/03/02 04:16:56;;;;;;;;;;;;;;;-0.14;82.55;102321.19;5051214;28;19912;-61
2023/03/02 04:19:21;;;;;;;;;;;;;;;-0.15;82.66;102326.50;5058816;28;20400;-61
2023/03/02 04:21:48;;;;;;;;;;;;;;;-0.15;82.37;102334.31;5067453;28;19954;-61
2023/03/02 04:24:13;;;;;;;;;;;;;;;-0.17;82.46;102325.69;5063326;28;19916;-61
2023/03/02 04:26:40;;;;;;;;;;;;;;;-0.18;82.36;102330.06;5060993;28;20011;-60
2023/03/02 04:29:05;;;;;;;;;;;;;;;-0.18;82.34;102330.06;5063844;28;19916;-61
2023/03/02 04:31:31;;;;;;;;;;;;;;;-0.18;82.30;102331.84;5067039;28;19920;-61
2023/03/02 04:33:56;;;;;;;;;;;;;;;-0.19;82.15;102331.00;5058090;28;19912;-60
2023/03/02 04:36:21;;;;;;;;;;;;;;;-0.21;82.01;102331.97;5058709;28;19925;-61
2023/03/02 04:38:47;;;;;;;;;;;;;;;-0.29;81.81;102324.44;5061404;28;19959;-60
2023/03/02 04:41:13;;;;;;;;;;;;;;;-0.25;81.85;102333.88;5063031;28;19993;-61
2023/03/02 04:43:38;;;;;;;;;;;;;;;-0.26;81.83;102328.72;5061988;28;20366;-60
2023/03/02 04:46:03;;;;;;;;;;;;;;;-0.28;81.63;102326.16;5058865;28;19959;-60
2023/03/02 04:48:28;;;;;;;;;;;;;;;-0.30;81.50;102325.34;5057787;28;20323;-61
2023/03/02 04:50:53;;;;;;;;;;;;;;;-0.31;81.52;102327.13;5055116;28;19985;-60
2023/03/02 04:53:19;;;;;;;;;;;;;;;-0.33;81.53;102323.72;5056591;28;20007;-60
2023/03/02 04:55:44;;;;;;;;;;;;;;;-0.34;81.54;102329.84;5055282;28;20306;-60
2023/03/02 04:58:09;;;;;;;;;;;;;;;-0.35;81.48;102328.16;5055864;28;19924;-61
2023/03/02 05:00:35;;;;;;;;;;;;;;;-0.38;81.37;102325.69;5054443;28;19918;-60
2023/03/02 05:03:01;;;;;;;;;;;;;;;-0.40;81.41;102324.06;5057466;28;19947;-60
2023/03/02 05:05:26;;;;;;;;;;;;;;;-0.41;81.58;102328.41;5059384;28;19982;-61
2023/03/02 05:07:51;;;;;;;;;;;;;;;-0.43;81.50;102322.41;5064927;28;20345;-60
2023/03/02 05:10:18;;;;;;;;;;;;;;;-0.45;81.88;102326.84;5058987;28;20382;-61
2023/03/02 05:13:03;;;;;;;;;;;;;;;-0.45;82.06;102324.25;5059226;28;19912;-60
2023/03/02 05:15:32;;;;;;;;;;;;;;;-0.47;82.33;102314.78;5054921;28;21243;-60
2023/03/02 05:17:57;;;;;;;;;;;;;;;-0.49;82.49;102322.69;5052981;28;20019;-60
2023/03/02 05:20:26;;;;;;;;;;;;;;;-0.51;82.64;102321.03;5063875;28;19999;-60
2023/03/02 05:22:56;;;;;;;;;;;;;;;-0.52;82.72;102320.19;5066475;28;19958;-60
2023/03/02 05:25:21;;;;;;;;;;;;;;;-0.53;82.89;102315.91;5061707;28;20283;-60
2023/03/02 05:27:47;;;;;;;;;;;;;;;-0.52;83.16;102321.97;5064024;28;19920;-60
2023/03/02 05:30:12;;;;;;;;;;;;;;;-0.53;83.24;102321.13;5064303;28;19913;-60
2023/03/02 05:32:37;;;;;;;;;;;;;;;-0.52;83.66;102321.97;5054962;28;19921;-60
2023/03/02 05:35:03;;;;;;;;;;;;;;;-0.54;83.84;102318.56;5062979;28;19916;-60
2023/03/02 05:37:28;;;;;;;;;;;;;;;-0.54;83.65;102322.03;5050364;28;20436;-60
2023/03/02 05:39:53;;;;;;;;;;;;;;;-0.55;83.76;102325.53;5055596;28;19913;-60
2023/03/02 05:42:18;;;;;;;;;;;;;;;-0.55;83.68;102335.97;5058713;28;20073;-60
2023/03/02 05:44:43;;;;;;;;;;;;;;;-0.58;83.88;102323.03;5061230;28;19916;-60
2023/03/02 05:47:09;;;;;;;;;;;;;;;-0.60;83.93;102322.25;5056549;28;19971;-60
2023/03/02 05:49:34;;;;;;;;;;;;;;;-0.61;84.18;102328.38;5051785;28;19912;-60
2023/03/02 05:51:59;;;;;;;;;;;;;;;-0.62;84.34;102324.91;5060490;28;19940;-60
2023/03/02 05:54:24;;;;;;;;;;;;;;;-0.60;84.38;102334.44;5049972;28;19920;-60
2023/03/02 05:56:49;;;;;;;;;;;;;;;-0.60;84.27;102321.41;5059833;28;20255;-60
2023/03/02 05:59:14;;;;;;;;;;;;;;;-0.62;84.38;102318.84;5064048;28;20022;-60
2023/03/02 06:01:40;;;;;;;;;;;;;;;-0.62;84.48;102314.50;5058550;28;20409;-60
2023/03/02 06:04:05;;;;;;;;;;;;;;;-0.64;84.64;102324.13;5063640;28;19919;-60
2023/03/02 06:06:30;;;;;;;;;;;;;;;-0.65;84.68;102325.06;5049528;28;19951;-60
2023/03/02 06:08:55;;;;;;;;;;;;;;;-0.66;84.75;102325.13;5064064;28;19916;-60
2023/03/02 06:11:20;;;;;;;;;;;;;;;-0.66;84.82;102318.13;5051194;28;20428;-60
2023/03/02 06:13:46;;;;;;;;;;;;;;;-0.68;84.96;102324.31;5059296;28;20386;-60
2023/03/02 06:16:11;;;;;;;;;;;;;;;-0.68;85.11;102322.56;5057970;28;19917;-60
2023/03/02 06:18:36;;;;;;;;;;;;;;;-0.68;85.17;102319.13;5057452;28;19927;-61
2023/03/02 06:21:02;;;;;;;;;;;;;;;-0.70;85.35;102319.19;5060566;28;20374;-61
2023/03/02 06:23:27;;;;;;;;;;;;;;;-0.70;85.53;102323.53;5064196;28;20301;-61
2023/03/02 06:25:52;;;;;;;;;;;;;;;-0.78;85.62;102315.19;5058736;28;19917;-60
2023/03/02 06:28:20;;;;;;;;;;;;;;;-0.70;85.62;102320.94;5059815;28;19942;-60
2023/03/02 06:30:51;;;;;;;;;;;;;;;-0.70;85.76;102329.59;5062811;28;19913;-61
2023/03/02 06:33:17;;;;;;;;;;;;;;;-0.72;85.89;102333.19;5058836;28;19924;-60
2023/03/02 06:35:42;;;;;;;;;;;;;;;-0.70;85.89;102333.97;5058222;28;20943;-60
2023/03/02 06:38:07;;;;;;;;;;;;;;;-0.70;86.17;102331.38;5069117;28;19917;-60
2023/03/02 06:40:32;;;;;;;;;;;;;;;-0.77;86.21;102327.31;5066230;28;20349;-60
2023/03/02 06:42:59;;;;;;;;;;;;;;;-0.70;86.15;102337.44;5059459;28;19928;-61
2023/03/02 06:45:25;;;;;;;;;;;;;;;-0.69;86.25;102343.50;5064059;28;20007;-60
2023/03/02 06:47:50;;;;;;;;;;;;;;;-0.68;86.29;102345.19;5063818;28;19969;-60
2023/03/02 06:50:15;;;;;;;;;;;;;;;-0.67;86.24;102346.91;5059429;28;20328;-60
2023/03/02 06:52:40;;;;;;;;;;;;;;;-0.63;86.21;102351.06;5060974;28;20544;-60
2023/03/02 06:55:06;;;;;;;;;;;;;;;-0.59;86.33;102351.78;5052003;28;19924;-60
2023/03/02 06:57:34;;;;;;;;;;;;;;;-0.55;86.25;102351.63;5065296;28;19921;-60
2023/03/02 07:00:00;;;;;;;;;;;;;;;-0.49;86.40;102356.59;5056031;28;19913;-60
2023/03/02 07:02:26;;;;;;;;;;;;;;;-0.43;86.43;102356.34;5061246;28;19921;-60
2023/03/02 07:04:51;;;;;;;;;;;;;;;-0.36;86.46;102352.56;5062154;28;19920;-60
2023/03/02 07:07:16;;;;;;;;;;;;;;;-0.27;86.51;102350.50;5050420;28;19921;-61
2023/03/02 07:09:41;;;;;;;;;;;;;;;-0.17;86.53;102357.03;5052440;28;19916;-61
2023/03/02 07:12:16;;;;;;;;;;;;;;;-0.11;86.43;102346.31;5061629;28;19916;-60
2023/03/02 07:14:41;;;;;;;;;;;;;;;-0.02;86.53;102353.75;5613536;22;20297;-60
2023/03/02 07:17:07;;;;;;;;;;;;;;;0.08;86.47;102352.47;5025553;28;20389;-59
2023/03/02 07:19:32;;;;;;;;;;;;;;;0.19;86.32;102359.84;5030429;28;19921;-58
2023/03/02 07:21:57;;;;;;;;;;;;;;;0.28;86.38;102352.44;5028048;28;19924;-58
2023/03/02 07:24:23;;;;;;;;;;;;;;;0.37;86.22;102353.81;5026865;28;19917;-58
2023/03/02 07:26:48;;;;;;;;;;;;;;;0.47;85.88;102357.72;5022162;28;20370;-58
2023/03/02 07:29:13;;;;;;;;;;;;;;;0.57;85.74;102363.38;5029469;28;19918;-58
2023/03/02 07:31:38;;;;;;;;;;;;;;;0.66;85.42;102360.34;5028165;28;20388;-58
2023/03/02 07:34:03;;;;;;;;;;;;;;;0.76;85.33;102368.63;5028371;28;19913;-58
2023/03/02 07:36:29;;;;;;;;;;;;;;;0.84;85.10;102358.66;5029655;28;20492;-58
2023/03/02 07:38:54;;;;;;;;;;;;;;;0.93;84.75;102359.09;5030636;28;19913;-58
2023/03/02 07:41:19;;;;;;;;;;;;;;;1.03;84.49;102359.50;5029099;28;20022;-58
2023/03/02 07:43:44;;;;;;;;;;;;;;;1.13;84.29;102365.13;5029741;28;19917;-58
2023/03/02 07:46:09;;;;;;;;;;;;;;;1.19;83.96;102355.25;5025847;28;20395;-58
2023/03/02 07:48:35;;;;;;;;;;;;;;;1.30;83.88;102346.03;5028886;28;20714;-58
2023/03/02 07:51:01;;;;;;;;;;;;;;;1.38;83.22;102354.34;5028692;28;19917;-58
2023/03/02 07:53:26;;;;;;;;;;;;;;;1.43;83.08;102358.44;5027891;28;19925;-59
2023/03/02 07:55:52;;;;;;;;;;;;;;;1.48;82.79;102353.00;5029077;28;19931;-58
2023/03/02 07:58:17;;;;;;;;;;;;;;;1.56;82.84;102356.09;5030170;28;20370;-58
2023/03/02 08:00:42;;;;;;;;;;;;;;;1.66;82.63;102356.47;5030433;28;20463;-58
2023/03/02 08:03:07;;;;;;;;;;;;;;;1.75;82.48;102345.56;5028381;28;19922;-58
2023/03/02 08:05:32;;;;;;;;;;;;;;;1.86;82.21;102348.47;5029328;28;20000;-58
2023/03/02 08:07:58;;;;;;;;;;;;;;;1.93;81.64;102357.72;5029424;28;19913;-58
2023/03/02 08:10:23;;;;;;;;;;;;;;;1.99;81.52;102357.41;5030351;28;19963;-58
2023/03/02 08:12:48;;;;;;;;;;;;;;;2.05;81.11;102353.66;5029032;28;20378;-58
2023/03/02 08:15:13;;;;;;;;;;;;;;;2.12;80.62;102353.25;5029364;28;19972;-58
2023/03/02 08:17:38;;;;;;;;;;;;;;;2.22;80.25;102344.91;5029392;28;20362;-58
2023/03/02 08:20:04;;;;;;;;;;;;;;;2.30;79.78;102356.66;5027881;28;19917;-58
2023/03/02 08:22:29;;;;;;;;;;;;;;;2.38;79.98;102356.28;5027314;28;19970;-58
2023/03/02 08:24:54;;;;;;;;;;;;;;;2.44;79.33;102355.97;5025809;28;19917;-58
2023/03/02 08:27:20;;;;;;;;;;;;;;;2.49;78.70;102357.41;5028639;28;19975;-58
2023/03/02 08:29:45;;;;;;;;;;;;;;;2.54;78.37;102361.56;5027977;28;19923;-58
2023/03/02 08:32:10;;;;;;;;;;;;;;;2.62;78.36;102360.25;5027055;28;20411;-58
2023/03/02 08:34:35;;;;;;;;;;;;;;;2.72;78.09;102365.81;5026955;28;19983;-58
2023/03/02 08:37:01;;;;;;;;;;;;;;;2.78;77.74;102361.09;5023960;28;20309;-58
2023/03/02 08:39:29;;;;;;;;;;;;;;;2.87;77.55;102364.13;5026814;28;20448;-58
2023/03/02 08:41:54;;;;;;;;;;;;;;;2.95;76.72;102361.97;5025931;28;19921;-58
2023/03/02 08:44:22;;;;;;;;;;;;;;;3.03;76.64;102359.75;5028112;28;19924;-58
2023/03/02 08:46:48;;;;;;;;;;;;;;;3.11;76.26;102360.16;5027437;28;19921;-58
2023/03/02 08:49:13;;;;;;;;;;;;;;;3.18;76.01;102356.31;5029201;28;19921;-58
2023/03/02 08:51:39;;;;;;;;;;;;;;;3.24;75.49;102355.09;5027910;28;20263;-58
2023/03/02 08:54:04;;;;;;;;;;;;;;;3.30;74.96;102349.50;5028114;28;20428;-58
2023/03/02 08:56:30;;;;;;;;;;;;;;;3.37;74.86;102348.22;5028525;28;19921;-58
2023/03/02 08:58:59;;;;;;;;;;;;;;;3.45;74.64;102345.16;5029313;28;19920;-58
2023/03/02 09:01:27;;;;;;;;;;;;;;;3.50;73.84;102348.38;5026541;28;19925;-58
2023/03/02 09:03:53;;;;;;;;;;;;;;;3.56;73.51;102345.41;5028465;28;19913;-59
2023/03/02 09:06:18;;;;;;;;;;;;;;;3.64;73.19;102349.25;5024132;28;19924;-58
2023/03/02 09:08:43;;;;;;;;;;;;;;;3.73;73.11;102345.25;5028822;28;19913;-58
2023/03/02 09:11:09;;;;;;;;;;;;;;;3.81;72.57;102348.31;5028360;28;20467;-57
2023/03/02 09:13:34;;;;;;;;;;;;;;;3.89;72.15;102350.47;5027924;28;19925;-58
2023/03/02 09:16:00;;;;;;;;;;;;;;;3.95;71.87;102345.69;5027209;28;20028;-58
2023/03/02 09:18:26;;;;;;;;;;;;;;;4.00;71.70;102343.63;5028802;28;19959;-58
2023/03/02 09:20:51;;;;;;;;;;;;;;;4.04;71.48;102341.66;5027794;28;19917;-58
2023/03/02 09:23:17;;;;;;;;;;;;;;;4.11;71.19;102332.50;5027708;28;19959;-58
2023/03/02 09:25:42;;;;;;;;;;;;;;;4.18;71.03;102335.59;5025866;28;19928;-58
2023/03/02 09:28:07;;;;;;;;;;;;;;;4.22;70.35;102340.56;5026920;28;19917;-58
2023/03/02 09:30:33;;;;;;;;;;;;;;;4.27;70.12;102340.28;5027504;28;20362;-58
2023/03/02 09:32:58;;;;;;;;;;;;;;;4.34;70.27;102339.00;5023527;28;19917;-57
2023/03/02 09:35:23;;;;;;;;;;;;;;;4.44;69.83;102342.75;5023161;28;19921;-58
2023/03/02 09:37:48;;;;;;;;;;;;;;;4.52;69.60;102343.13;5026657;28;19917;-59
2023/03/02 09:40:15;;;;;;;;;;;;;;;4.60;69.27;102330.31;5026488;28;20397;-58
2023/03/02 09:42:52;;;;;;;;;;;;;;;4.73;69.10;102324.31;5025699;28;19917;-58
2023/03/02 09:45:17;;;;;;;;;;;;;;;4.84;68.35;102338.47;5024447;28;19924;-59
2023/03/02 09:47:54;;;;;;;;;;;;;;;4.92;67.70;102332.75;5025100;28;20328;-59
2023/03/02 09:50:30;;;;;;;;;;;;;;;5.00;67.59;102335.72;5026741;28;19963;-59
2023/03/02 09:53:01;;;;;;;;;;;;;;;5.11;67.38;102338.50;5028359;28;19913;-59
2023/03/02 09:55:31;;;;;;;;;;;;;;;5.19;66.53;102333.59;5026863;28;19943;-59
2023/03/02 09:57:56;;;;;;;;;;;;;;;5.26;65.98;102334.91;5030411;28;20055;-59
2023/03/02 10:00:34;;;;;;;;;;;;;;;5.33;65.64;102326.59;5031632;28;20567;-59
2023/03/02 10:03:01;;;;;;;;;;;;;;;5.42;65.37;102329.47;5031089;28;20361;-59
2023/03/02 10:05:28;;;;;;;;;;;;;;;5.51;64.85;102338.56;5030616;28;20389;-59
2023/03/02 10:07:54;;;;;;;;;;;;;;;5.58;64.72;102324.88;5031767;28;20302;-58
2023/03/02 10:10:19;;;;;;;;;;;;;;;5.63;64.13;102332.47;5030555;28;19925;-58
2023/03/02 10:13:03;;;;;;;;;;;;;;;5.68;63.97;102324.25;5028794;28;19971;-59
2023/03/02 10:15:38;;;;;;;;;;;;;;;5.73;64.00;102328.28;5029531;28;20398;-58
2023/03/02 10:18:17;;;;;;;;;;;;;;;5.78;63.53;102333.22;5029349;28;19925;-58
2023/03/02 10:20:42;;;;;;;;;;;;;;;5.82;63.42;102329.47;5029948;28;19948;-59
2023/03/02 10:23:18;;;;;;;;;;;;;;;5.88;63.32;102331.69;5026190;28;19983;-58
2023/03/02 10:25:52;;;;;;;;;;;;;;;5.93;62.98;102324.34;5027511;28;20437;-58
2023/03/02 10:28:19;;;;;;;;;;;;;;;5.97;62.52;102317.91;5025455;28;19925;-59
2023/03/02 10:30:45;;;;;;;;;;;;;;;6.05;62.63;102327.91;5027979;28;19917;-58
2023/03/02 10:33:13;;;;;;;;;;;;;;;6.12;62.34;102321.31;5027318;28;19924;-58
2023/03/02 10:35:43;;;;;;;;;;;;;;;6.12;61.45;102322.16;5029212;28;19921;-59
2023/03/02 10:38:16;;;;;;;;;;;;;;;6.09;61.07;102319.72;5031093;28;19924;-58
2023/03/02 10:40:44;;;;;;;;;;;;;;;6.05;60.67;102312.09;5027860;28;19921;-59
2023/03/02 10:43:14;;;;;;;;;;;;;;;6.05;60.51;102314.75;5023045;28;19917;-58
2023/03/02 10:45:39;;;;;;;;;;;;;;;6.08;60.53;102311.91;5029723;28;20080;-59
2023/03/02 10:48:08;;;;;;;;;;;;;;;6.12;60.50;102302.84;5030677;28;20008;-58
2023/03/02 10:50:34;;;;;;;;;;;;;;;6.14;60.27;102308.84;5030171;28;19951;-58
2023/03/02 10:52:59;;;;;;;;;;;;;;;6.17;59.88;102306.00;5024469;28;19960;-60
2023/03/02 10:55:25;;;;;;;;;;;;;;;6.22;59.51;102301.25;5028565;28;20477;-59
2023/03/02 10:58:01;;;;;;;;;;;;;;;6.25;59.38;102303.66;5029828;28;19925;-59
2023/03/02 11:00:27;;;;;;;;;;;;;;;6.27;58.92;102304.41;5026828;28;19925;-59
2023/03/02 11:02:52;;;;;;;;;;;;;;;6.29;58.83;102293.75;5028170;28;20008;-59
2023/03/02 11:05:21;;;;;;;;;;;;;;;6.29;58.75;102304.28;5029532;28;20012;-59
2023/03/02 11:07:55;;;;;;;;;;;;;;;6.32;58.62;102293.53;5029315;28;19959;-59
2023/03/02 11:10:22;;;;;;;;;;;;;;;6.32;58.26;102291.72;5027782;28;19939;-59
2023/03/02 11:12:49;;;;;;;;;;;;;;;6.32;58.17;102297.00;5029308;28;19924;-59
2023/03/02 11:15:24;;;;;;;;;;;;;;;6.31;57.99;102297.97;5029545;28;19972;-59
2023/03/02 11:17:59;;;;;;;;;;;;;;;6.31;57.92;102287.41;5030254;28;19917;-59
2023/03/02 11:20:28;;;;;;;;;;;;;;;6.39;57.84;102290.38;5029849;28;19919;-59
2023/03/02 11:23:02;;;;;;;;;;;;;;;6.51;58.41;102293.94;5027520;28;20016;-59
2023/03/02 11:25:30;;;;;;;;;;;;;;;6.61;58.43;102302.03;5024720;28;19923;-59
2023/03/02 11:28:00;;;;;;;;;;;;;;;6.67;58.62;102293.69;5026499;28;19921;-59
2023/03/02 11:30:28;;;;;;;;;;;;;;;6.71;58.17;102284.59;5022542;28;19929;-59
2023/03/02 11:33:02;;;;;;;;;;;;;;;6.73;58.08;102282.69;5028498;28;19952;-59
2023/03/02 11:35:57;;;;;;;;;;;;;;;6.76;58.34;102282.47;5026625;28;19961;-59
2023/03/02 11:38:25;;;;;;;;;;;;;;;6.83;57.99;102286.34;5011893;28;20182;-59
2023/03/02 11:40:52;;;;;;;;;;;;;;;6.94;58.47;102283.78;5026992;28;19959;-59
2023/03/02 11:43:18;;;;;;;;;;;;;;;7.08;58.18;102272.19;5028115;28;19917;-59
2023/03/02 11:45:50;;;;;;;;;;;;;;;7.24;57.54;102272.78;5026012;28;19921;-59
2023/03/02 11:48:34;;;;;;;;;;;;;;;7.43;57.63;102269.56;5028706;28;20303;-60
2023/03/02 11:51:04;;;;;;;;;;;;;;;7.64;57.84;102270.63;5027832;28;19913;-59
2023/03/02 11:53:35;;;;;;;;;;;;;;;7.84;57.55;102268.25;5026848;28;20540;-59
2023/03/02 11:56:01;;;;;;;;;;;;;;;8.01;56.60;102258.03;5026674;28;19921;-59
2023/03/02 11:58:28;;;;;;;;;;;;;;;8.18;56.41;102263.84;5028784;28;19968;-60
2023/03/02 12:00:54;;;;;;;;;;;;;;;8.29;55.51;102262.03;5027532;28;20374;-59
2023/03/02 12:03:21;;;;;;;;;;;;;;;8.39;55.02;102264.84;5026938;28;19917;-59
2023/03/02 12:05:52;;;;;;;;;;;;;;;8.49;54.48;102264.94;5025250;28;20429;-58
2023/03/02 12:08:17;;;;;;;;;;;;;;;8.56;54.07;102263.47;5029345;28;19920;-59
2023/03/02 12:10:54;;;;;;;;;;;;;;;8.62;54.47;102260.34;5030996;28;19917;-59
2023/03/02 12:13:26;;;;;;;;;;;;;;;8.69;53.84;102270.34;5027953;28;19975;-59
2023/03/02 12:15:51;;;;;;;;;;;;;;;8.76;53.83;102260.09;5020115;28;20341;-58
2023/03/02 12:18:19;;;;;;;;;;;;;;;8.84;53.76;102252.34;5025806;28;19925;-60
2023/03/02 12:20:45;;;;;;;;;;;;;;;8.97;53.67;102242.44;5028997;28;19920;-60
2023/03/02 12:23:23;;;;;;;;;;;;;;;9.14;53.58;102242.84;5029250;28;19913;-60
2023/03/02 12:25:50;;;;;;;;;;;;;;;9.27;53.04;102244.38;5028247;28;19913;-59
2023/03/02 12:28:29;;;;;;;;;;;;;;;9.36;52.05;102241.91;5029631;28;19917;-59
2023/03/02 12:31:00;;;;;;;;;;;;;;;9.46;51.20;102240.16;5028979;28;19913;-59
2023/03/02 12:33:25;;;;;;;;;;;;;;;9.53;50.95;102234.22;5029472;28;19913;-59
2023/03/02 12:36:01;;;;;;;;;;;;;;;9.70;50.67;102232.78;5026930;28;19924;-59
2023/03/02 12:38:29;;;;;;;;;;;;;;;9.85;50.29;102235.97;5028682;28;19939;-61
2023/03/02 12:40:54;;;;;;;;;;;;;;;9.90;49.80;102241.72;5030021;28;20474;-59